createdAt,value
2018-07-02T00:00:19.257Z,17.00
2018-07-02T00:02:48.253Z,16.90
2018-07-02T00:05:17.217Z,16.80
2018-07-02T00:07:46.224Z,16.80
2018-07-02T00:10:15.211Z,16.80
2018-07-02T00:15:13.271Z,16.70
2018-07-02T00:17:42.308Z,16.70
2018-07-02T00:20:11.279Z,16.70
2018-07-02T00:22:40.259Z,16.70
2018-07-02T00:25:09.261Z,16.70
2018-07-02T00:27:38.161Z,16.60
2018-07-02T00:30:07.117Z,16.60
2018-07-02T00:32:36.111Z,16.60
2018-07-02T00:35:05.520Z,16.60
2018-07-02T00:40:03.021Z,16.50
2018-07-02T00:42:31.984Z,16.50
2018-07-02T00:45:01.186Z,16.50
2018-07-02T00:47:30.125Z,16.40
2018-07-02T00:49:59.125Z,16.40
2018-07-02T00:52:28.078Z,16.40
2018-07-02T00:54:57.073Z,16.40
2018-07-02T00:57:26.137Z,16.30
2018-07-02T01:00:00.961Z,16.20
2018-07-02T01:02:29.980Z,16.20
2018-07-02T01:04:58.925Z,16.20
2018-07-02T01:07:27.876Z,16.20
2018-07-02T01:09:57.029Z,16.10
2018-07-02T01:12:25.973Z,16.10
2018-07-02T01:14:55.017Z,16.00
2018-07-02T01:17:23.981Z,15.90
2018-07-02T01:19:52.889Z,15.80
2018-07-02T01:24:50.594Z,15.70
2018-07-02T01:27:19.556Z,15.70
2018-07-02T01:29:48.555Z,15.60
2018-07-02T01:32:17.541Z,15.50
2018-07-02T01:37:15.098Z,15.40
2018-07-02T01:39:44.094Z,15.40
2018-07-02T01:42:13.031Z,15.30
2018-07-02T01:44:42.095Z,15.20
2018-07-02T01:47:11.053Z,15.10
2018-07-02T01:49:40.277Z,15.10
2018-07-02T01:52:09.245Z,15.00
2018-07-02T01:54:38.246Z,15.00
2018-07-02T01:57:07.161Z,15.00
2018-07-02T01:59:36.089Z,14.90
2018-07-02T02:02:05.524Z,14.90
2018-07-02T02:04:34.949Z,14.90
2018-07-02T02:07:04.055Z,14.80
2018-07-02T02:09:33.025Z,14.80
2018-07-02T02:12:02.055Z,14.70
2018-07-02T02:14:31.208Z,14.60
2018-07-02T02:17:00.329Z,14.50
2018-07-02T02:19:29.249Z,14.50
2018-07-02T02:21:58.180Z,14.40
2018-07-02T02:24:27.108Z,14.30
2018-07-02T02:26:56.383Z,14.30
2018-07-02T02:31:54.159Z,14.30
2018-07-02T02:34:23.130Z,14.30
2018-07-02T02:36:52.114Z,14.30
2018-07-02T02:39:21.348Z,14.30
2018-07-02T02:44:19.296Z,14.20
2018-07-02T02:46:48.238Z,14.10
2018-07-02T02:49:17.492Z,14.00
2018-07-02T02:51:46.541Z,14.00
2018-07-02T02:54:15.508Z,14.00
2018-07-02T02:56:44.629Z,13.90
2018-07-02T02:59:13.625Z,13.80
2018-07-02T03:01:42.679Z,13.80
2018-07-02T03:04:11.609Z,13.80
2018-07-02T03:06:40.553Z,13.80
2018-07-02T03:11:38.483Z,13.60
2018-07-02T03:14:07.881Z,13.60
2018-07-02T03:16:36.801Z,13.60
2018-07-02T03:19:06.074Z,13.50
2018-07-02T03:21:34.995Z,13.50
2018-07-02T03:24:03.955Z,13.50
2018-07-02T03:26:32.885Z,13.40
2018-07-02T03:29:01.873Z,13.50
2018-07-02T03:31:30.812Z,13.40
2018-07-02T03:34:00.133Z,13.40
2018-07-02T03:36:29.102Z,13.40
2018-07-02T03:38:58.118Z,13.40
2018-07-02T03:41:27.064Z,13.30
2018-07-02T03:43:56.034Z,13.30
2018-07-02T03:46:25.038Z,13.20
2018-07-02T03:48:53.970Z,13.20
2018-07-02T03:51:22.930Z,13.20
2018-07-02T03:53:51.904Z,13.20
2018-07-02T03:58:49.566Z,13.20
2018-07-02T04:01:18.529Z,13.20
2018-07-02T04:03:48.139Z,13.20
2018-07-02T04:06:17.163Z,13.20
2018-07-02T04:08:46.402Z,13.20
2018-07-02T04:11:15.530Z,13.20
2018-07-02T04:13:44.561Z,13.20
2018-07-02T04:16:13.522Z,13.30
2018-07-02T04:18:42.461Z,13.30
2018-07-02T04:21:11.417Z,13.30
2018-07-02T04:23:40.980Z,13.40
2018-07-02T04:26:10.018Z,13.40
2018-07-02T04:28:39.108Z,13.50
2018-07-02T04:31:08.304Z,13.50
2018-07-02T04:33:37.290Z,13.60
2018-07-02T04:36:06.262Z,13.60
2018-07-02T04:38:35.217Z,13.80
2018-07-02T04:41:04.129Z,13.80
2018-07-02T04:43:33.697Z,13.80
2018-07-02T04:46:02.618Z,13.80
2018-07-02T04:48:31.581Z,14.00
2018-07-02T04:51:00.585Z,14.30
2018-07-02T04:53:29.539Z,14.90
2018-07-02T04:55:58.582Z,15.50
2018-07-02T04:58:27.646Z,16.20
2018-07-02T05:00:56.603Z,16.80
2018-07-02T05:03:25.787Z,17.20
2018-07-02T05:05:54.968Z,17.50
2018-07-02T05:08:24.016Z,17.80
2018-07-02T05:10:53.182Z,18.00
2018-07-02T05:15:50.790Z,18.40
2018-07-02T05:18:19.801Z,18.50
2018-07-02T05:20:48.752Z,18.70
2018-07-02T05:23:17.704Z,18.80
2018-07-02T05:25:46.669Z,18.90
2018-07-02T05:28:15.649Z,19.10
2018-07-02T05:30:44.615Z,19.30
2018-07-02T05:33:13.585Z,19.40
2018-07-02T05:35:42.536Z,19.40
2018-07-02T05:38:11.470Z,19.40
2018-07-02T05:40:40.445Z,19.60
2018-07-02T05:43:09.558Z,19.80
2018-07-02T05:45:38.537Z,19.70
2018-07-02T05:48:07.473Z,19.70
2018-07-02T05:50:36.562Z,19.70
2018-07-02T05:53:05.595Z,19.80
2018-07-02T05:55:34.634Z,19.80
2018-07-02T05:58:03.610Z,19.90
2018-07-02T06:00:32.581Z,20.10
2018-07-02T06:03:01.526Z,20.20
2018-07-02T06:05:31.506Z,20.30
2018-07-02T06:08:00.603Z,20.40
2018-07-02T06:10:29.492Z,20.50
2018-07-02T06:12:58.327Z,20.60
2018-07-02T06:15:27.524Z,20.60
2018-07-02T06:17:56.581Z,20.80
2018-07-02T06:22:54.200Z,21.20
2018-07-02T06:25:23.443Z,21.50
2018-07-02T06:27:52.464Z,21.60
2018-07-02T06:30:21.426Z,21.50
2018-07-02T06:35:19.214Z,21.60
2018-07-02T06:37:48.254Z,21.50
2018-07-02T06:40:17.207Z,21.60
2018-07-02T06:45:14.771Z,22.10
2018-07-02T06:47:43.739Z,22.20
2018-07-02T06:50:12.691Z,22.30
2018-07-02T06:52:42.261Z,22.30
2018-07-02T06:55:11.622Z,22.50
2018-07-02T06:57:40.571Z,22.80
2018-07-02T07:00:09.486Z,23.30
2018-07-02T07:02:38.535Z,23.50
2018-07-02T07:05:07.629Z,23.40
2018-07-02T07:07:36.611Z,23.60
2018-07-02T07:10:06.055Z,23.70
2018-07-02T07:15:03.710Z,23.70
2018-07-02T07:17:33.056Z,23.80
2018-07-02T07:20:02.200Z,24.00
2018-07-02T07:22:31.146Z,24.00
2018-07-02T07:25:00.162Z,24.20
2018-07-02T07:27:29.205Z,24.40
2018-07-02T07:29:58.190Z,24.60
2018-07-02T07:32:27.140Z,24.70
2018-07-02T07:34:56.087Z,24.80
2018-07-02T07:37:25.054Z,24.80
2018-07-02T07:44:51.339Z,24.70
2018-07-02T07:47:20.378Z,24.80
2018-07-02T07:49:49.302Z,24.70
2018-07-02T07:52:18.444Z,24.70
2018-07-02T07:54:47.556Z,24.50
2018-07-02T07:57:16.452Z,24.60
2018-07-02T07:59:45.449Z,24.80
2018-07-02T08:02:14.503Z,25.10
2018-07-02T08:04:43.414Z,25.20
2018-07-02T08:07:12.390Z,25.50
2018-07-02T08:09:41.300Z,25.60
2018-07-02T08:12:10.237Z,25.60
2018-07-02T08:14:39.277Z,25.60
2018-07-02T08:17:08.249Z,25.70
2018-07-02T08:19:37.245Z,25.90
2018-07-02T08:22:06.477Z,26.00
2018-07-02T08:24:35.465Z,26.10
2018-07-02T08:27:04.504Z,26.00
2018-07-02T08:29:33.423Z,25.90
2018-07-02T08:32:02.621Z,25.90
2018-07-02T08:37:00.221Z,26.10
2018-07-02T08:39:29.185Z,26.10
2018-07-02T08:44:26.846Z,25.90
2018-07-02T08:46:55.934Z,26.00
2018-07-02T08:49:25.257Z,26.00
2018-07-02T08:51:55.229Z,26.00
2018-07-02T08:54:24.261Z,26.00
2018-07-02T08:56:53.255Z,26.20
2018-07-02T08:59:22.192Z,26.40
2018-07-02T09:01:51.162Z,26.50
2018-07-02T09:04:20.239Z,26.50
2018-07-02T09:06:49.196Z,26.40
2018-07-02T09:09:18.527Z,26.30
2018-07-02T09:11:47.863Z,26.20
2018-07-02T09:14:16.896Z,25.90
2018-07-02T09:16:45.904Z,26.00
2018-07-02T09:19:15.123Z,26.20
2018-07-02T09:21:44.236Z,26.40
2018-07-02T09:24:13.469Z,26.40
2018-07-02T09:26:42.470Z,26.60
2018-07-02T09:29:11.666Z,26.70
2018-07-02T09:31:40.661Z,26.70
2018-07-02T09:34:09.678Z,26.60
2018-07-02T09:36:38.795Z,27.00
2018-07-02T09:39:09.684Z,26.90
2018-07-02T09:41:38.766Z,26.70
2018-07-02T09:44:07.969Z,26.60
2018-07-02T09:46:37.467Z,26.60
2018-07-02T09:49:06.398Z,26.60
2018-07-02T09:51:35.483Z,26.70
2018-07-02T09:54:04.888Z,26.90
2018-07-02T09:56:33.666Z,27.10
2018-07-02T10:01:31.302Z,27.10
2018-07-02T10:04:00.244Z,27.10
2018-07-02T10:06:29.216Z,27.10
2018-07-02T10:08:58.336Z,27.30
2018-07-02T10:11:27.294Z,27.40
2018-07-02T10:13:56.286Z,27.40
2018-07-02T10:16:25.345Z,27.50
2018-07-02T10:18:54.326Z,27.40
2018-07-02T10:21:23.318Z,27.50
2018-07-02T10:23:52.528Z,27.60
2018-07-02T10:26:21.422Z,27.70
2018-07-02T10:28:50.470Z,27.70
2018-07-02T10:31:19.538Z,27.70
2018-07-02T10:33:48.386Z,27.80
2018-07-02T10:36:17.345Z,28.10
2018-07-02T10:38:46.269Z,28.30
2018-07-02T10:41:15.260Z,28.40
2018-07-02T10:43:44.285Z,27.90
2018-07-02T10:46:13.225Z,27.90
2018-07-02T10:48:42.349Z,27.90
2018-07-02T10:51:11.348Z,27.90
2018-07-02T10:53:40.253Z,27.90
2018-07-02T10:56:09.265Z,27.90
2018-07-02T10:58:38.271Z,27.70
2018-07-02T11:01:07.263Z,27.60
2018-07-02T11:03:36.244Z,27.60
2018-07-02T11:06:05.206Z,27.70
2018-07-02T11:11:02.899Z,28.20
2018-07-02T11:13:31.893Z,28.00
2018-07-02T11:16:00.788Z,28.20
2018-07-02T11:18:29.757Z,28.10
2018-07-02T11:20:58.761Z,28.10
2018-07-02T11:23:27.770Z,28.20
2018-07-02T11:25:56.687Z,28.30
2018-07-02T11:28:25.637Z,28.40
2018-07-02T11:30:54.630Z,28.70
2018-07-02T11:33:23.590Z,28.70
2018-07-02T11:35:52.670Z,28.80
2018-07-02T11:38:21.708Z,28.80
2018-07-02T11:40:50.798Z,28.70
2018-07-02T11:45:48.538Z,29.10
2018-07-02T11:48:17.478Z,29.40
2018-07-02T11:50:46.546Z,29.50
2018-07-02T11:53:15.491Z,29.30
2018-07-02T11:55:44.464Z,29.40
2018-07-02T11:58:13.432Z,29.30
2018-07-02T12:00:42.372Z,29.40
2018-07-02T12:03:11.328Z,29.30
2018-07-02T12:05:40.273Z,29.10
2018-07-02T12:08:09.254Z,29.30
2018-07-02T12:10:38.514Z,29.00
2018-07-02T12:13:07.582Z,29.00
2018-07-02T12:15:36.550Z,28.70
2018-07-02T12:18:05.702Z,28.60
2018-07-02T12:20:34.659Z,28.60
2018-07-02T12:23:03.598Z,28.40
2018-07-02T12:25:32.685Z,28.60
2018-07-02T12:28:01.674Z,28.80
2018-07-02T12:30:30.594Z,29.10
2018-07-02T12:35:28.293Z,29.20
2018-07-02T12:37:57.209Z,29.30
2018-07-02T12:40:26.194Z,29.10
2018-07-02T12:42:55.147Z,29.00
2018-07-02T12:45:24.151Z,29.20
2018-07-02T12:47:54.406Z,29.10
2018-07-02T12:50:23.805Z,29.00
2018-07-02T12:52:52.901Z,28.90
2018-07-02T12:55:22.165Z,29.10
2018-07-02T12:57:51.124Z,29.10
2018-07-02T13:00:20.122Z,29.10
2018-07-02T13:02:49.052Z,29.20
2018-07-02T13:05:18.054Z,29.40
2018-07-02T13:07:47.026Z,29.40
2018-07-02T13:10:16.781Z,29.50
2018-07-02T13:12:45.800Z,29.60
2018-07-02T13:15:14.792Z,29.70
2018-07-02T13:17:43.907Z,30.00
2018-07-02T13:20:12.898Z,30.20
2018-07-02T13:22:41.869Z,30.30
2018-07-02T13:25:10.830Z,30.30
2018-07-02T13:27:39.811Z,30.30
2018-07-02T13:30:08.785Z,30.40
2018-07-02T13:32:37.699Z,30.10
2018-07-02T13:35:06.685Z,29.90
2018-07-02T13:37:35.719Z,30.00
2018-07-02T13:40:04.708Z,29.90
2018-07-02T13:42:33.705Z,29.80
2018-07-02T13:45:02.921Z,30.00
2018-07-02T13:47:31.802Z,30.30
2018-07-02T13:50:00.761Z,30.40
2018-07-02T13:52:29.719Z,30.30
2018-07-02T13:54:58.843Z,30.20
2018-07-02T13:57:27.742Z,30.10
2018-07-02T13:59:56.661Z,30.20
2018-07-02T14:02:25.592Z,30.30
2018-07-02T14:04:54.562Z,30.50
2018-07-02T14:07:23.545Z,30.30
2018-07-02T14:09:52.513Z,30.20
2018-07-02T14:12:21.493Z,30.30
2018-07-02T14:14:50.481Z,30.60
2018-07-02T14:19:48.025Z,30.20
2018-07-02T14:22:17.287Z,30.20
2018-07-02T14:24:46.241Z,30.00
2018-07-02T14:27:15.302Z,29.80
2018-07-02T14:29:44.451Z,29.90
2018-07-02T14:32:13.354Z,30.20
2018-07-02T14:34:42.309Z,30.40
2018-07-02T14:37:11.304Z,30.50
2018-07-02T14:39:40.857Z,30.60
2018-07-02T14:42:09.853Z,30.50
2018-07-02T14:44:38.848Z,30.20
2018-07-02T14:47:08.150Z,30.00
2018-07-02T14:49:37.343Z,30.20
2018-07-02T14:52:06.346Z,30.30
2018-07-02T14:54:35.265Z,30.40
2018-07-02T14:57:04.223Z,30.70
2018-07-02T14:59:33.550Z,30.70
2018-07-02T15:02:02.563Z,30.30
2018-07-02T15:04:31.710Z,30.30
2018-07-02T15:07:00.695Z,30.10
2018-07-02T15:09:29.670Z,30.00
2018-07-02T15:11:58.622Z,30.00
2018-07-02T15:14:27.625Z,29.80
2018-07-02T15:16:56.660Z,29.70
2018-07-02T15:19:25.651Z,29.60
2018-07-02T15:21:55.048Z,29.50
2018-07-02T15:24:24.345Z,29.60
2018-07-02T15:26:54.244Z,29.70
2018-07-02T15:29:23.210Z,29.90
2018-07-02T15:31:52.135Z,29.90
2018-07-02T15:34:21.131Z,30.00
2018-07-02T15:36:50.082Z,30.00
2018-07-02T15:39:19.034Z,29.90
2018-07-02T15:41:48.168Z,29.80
2018-07-02T15:44:17.166Z,29.50
2018-07-02T15:46:46.194Z,29.30
2018-07-02T15:51:43.896Z,29.20
2018-07-02T15:54:12.854Z,29.40
2018-07-02T15:56:42.457Z,29.50
2018-07-02T15:59:11.939Z,29.40
2018-07-02T16:01:41.549Z,29.20
2018-07-02T16:04:11.092Z,28.90
2018-07-02T16:06:40.051Z,28.80
2018-07-02T16:09:10.377Z,29.00
2018-07-02T16:11:39.472Z,29.10
2018-07-02T16:14:08.397Z,29.30
2018-07-02T16:16:37.375Z,29.30
2018-07-02T16:19:06.766Z,29.40
2018-07-02T16:21:35.727Z,29.30
2018-07-02T16:24:04.870Z,29.40
2018-07-02T16:26:33.982Z,29.10
2018-07-02T16:29:03.245Z,28.80
2018-07-02T16:31:32.251Z,28.80
2018-07-02T16:34:01.174Z,28.80
2018-07-02T16:36:30.517Z,28.90
2018-07-02T16:38:59.457Z,28.80
2018-07-02T16:43:57.019Z,28.80
2018-07-02T16:48:54.629Z,28.60
2018-07-02T16:51:23.572Z,28.50
2018-07-02T16:53:52.505Z,28.50
2018-07-02T16:56:21.485Z,28.50
2018-07-02T16:58:50.438Z,28.50
2018-07-02T17:01:19.465Z,28.40
2018-07-02T17:03:48.482Z,28.30
2018-07-02T17:06:17.568Z,28.20
2018-07-02T17:08:46.473Z,28.20
2018-07-02T17:11:15.406Z,28.20
2018-07-02T17:13:44.361Z,28.10
2018-07-02T17:16:13.350Z,28.10
2018-07-02T17:18:42.400Z,28.00
2018-07-02T17:21:11.345Z,28.00
2018-07-02T17:23:40.349Z,27.90
2018-07-02T17:26:09.358Z,27.60
2018-07-02T17:28:38.350Z,27.50
2018-07-02T17:31:08.641Z,27.40
2018-07-02T17:33:37.743Z,27.30
2018-07-02T17:36:06.676Z,27.20
2018-07-02T17:38:35.707Z,27.00
2018-07-02T17:41:05.339Z,27.00
2018-07-02T17:43:34.281Z,26.80
2018-07-02T17:46:03.265Z,26.70
2018-07-02T17:48:32.222Z,26.70
2018-07-02T17:51:01.229Z,26.60
2018-07-02T17:53:30.165Z,26.60
2018-07-02T17:55:59.373Z,26.60
2018-07-02T17:58:28.297Z,26.40
2018-07-02T18:00:57.258Z,26.40
2018-07-02T18:03:26.178Z,26.50
2018-07-02T18:05:55.152Z,26.50
2018-07-02T18:08:24.062Z,26.40
2018-07-02T18:10:53.029Z,26.50
2018-07-02T18:13:21.965Z,26.50
2018-07-02T18:15:50.884Z,26.60
2018-07-02T18:18:19.865Z,26.50
2018-07-02T18:20:48.871Z,26.50
2018-07-02T18:23:17.930Z,26.40
2018-07-02T18:25:46.931Z,26.30
2018-07-02T18:28:15.914Z,26.30
2018-07-02T18:30:45.098Z,26.30
2018-07-02T18:33:14.204Z,26.40
2018-07-02T18:35:43.141Z,26.50
2018-07-02T18:38:12.144Z,26.40
2018-07-02T18:40:41.104Z,26.50
2018-07-02T18:43:10.070Z,26.40
2018-07-02T18:45:39.073Z,26.30
2018-07-02T18:48:08.038Z,26.10
2018-07-02T18:50:36.966Z,25.90
2018-07-02T18:53:05.937Z,25.70
2018-07-02T18:55:35.087Z,25.50
2018-07-02T18:58:04.067Z,25.40
2018-07-02T19:00:33.039Z,25.20
2018-07-02T19:03:02.082Z,25.10
2018-07-02T19:05:31.097Z,24.90
2018-07-02T19:08:00.052Z,24.80
2018-07-02T19:10:29.151Z,24.70
2018-07-02T19:12:58.443Z,24.60
2018-07-02T19:15:27.453Z,24.50
2018-07-02T19:17:56.438Z,24.40
2018-07-02T19:20:25.378Z,24.20
2018-07-02T19:22:54.347Z,24.20
2018-07-02T19:25:23.322Z,24.00
2018-07-02T19:27:52.265Z,23.90
2018-07-02T19:30:21.254Z,23.80
2018-07-02T19:32:50.162Z,23.70
2018-07-02T19:35:19.190Z,23.60
2018-07-02T19:37:48.322Z,23.50
2018-07-02T19:40:17.338Z,23.30
2018-07-02T19:42:46.365Z,23.20
2018-07-02T19:47:43.924Z,23.10
2018-07-02T19:50:12.837Z,22.90
2018-07-02T19:52:41.881Z,22.80
2018-07-02T19:55:10.811Z,22.60
2018-07-02T19:57:39.755Z,22.50
2018-07-02T20:00:08.739Z,22.40
2018-07-02T20:02:37.796Z,22.20
2018-07-02T20:05:06.842Z,22.10
2018-07-02T20:07:35.856Z,22.00
2018-07-02T20:10:04.834Z,21.90
2018-07-02T20:12:34.022Z,21.80
2018-07-02T20:15:04.918Z,21.70
2018-07-02T20:17:34.772Z,21.60
2018-07-02T20:20:03.934Z,21.50
2018-07-02T20:22:32.878Z,21.40
2018-07-02T20:27:31.413Z,21.30
2018-07-02T20:30:00.368Z,21.10
2018-07-02T20:32:29.329Z,21.00
2018-07-02T20:34:58.550Z,20.90
2018-07-02T20:37:27.545Z,20.70
2018-07-02T20:39:56.548Z,20.70
2018-07-02T20:42:25.514Z,20.60
2018-07-02T20:44:54.496Z,20.40
2018-07-02T20:47:23.591Z,20.40
2018-07-02T20:49:52.549Z,20.30
2018-07-02T20:52:21.520Z,20.30
2018-07-02T20:54:50.466Z,20.20
2018-07-02T20:57:19.402Z,20.20
2018-07-02T20:59:48.467Z,20.10
2018-07-02T21:02:17.461Z,20.00
2018-07-02T21:04:46.461Z,19.90
2018-07-02T21:07:15.459Z,19.80
2018-07-02T21:12:13.916Z,19.70
2018-07-02T21:14:42.882Z,19.60
2018-07-02T21:17:11.845Z,19.50
2018-07-02T21:19:40.841Z,19.40
2018-07-02T21:22:10.149Z,19.40
2018-07-02T21:24:39.115Z,19.30
2018-07-02T21:27:08.093Z,19.20
2018-07-02T21:29:37.054Z,19.20
2018-07-02T21:32:06.020Z,19.10
2018-07-02T21:34:34.961Z,19.00
2018-07-02T21:37:04.097Z,19.00
2018-07-02T21:39:33.033Z,18.90
2018-07-02T21:42:02.056Z,18.90
2018-07-02T21:44:30.989Z,18.80
2018-07-02T21:46:59.984Z,18.70
2018-07-02T21:49:28.961Z,18.70
2018-07-02T21:51:57.952Z,18.60
2018-07-02T21:54:26.929Z,18.60
2018-07-02T21:56:55.897Z,18.50
2018-07-02T21:59:24.930Z,18.40
2018-07-02T22:01:53.965Z,18.30
2018-07-02T22:04:22.957Z,18.30
2018-07-02T22:06:51.901Z,18.20
2018-07-02T22:09:20.866Z,18.10
2018-07-02T22:11:50.110Z,18.00
2018-07-02T22:14:19.089Z,17.90
2018-07-02T22:16:48.048Z,17.90
2018-07-02T22:19:17.441Z,17.80
2018-07-02T22:21:46.393Z,17.60
2018-07-02T22:24:15.722Z,17.50
2018-07-02T22:26:44.689Z,17.40
2018-07-02T22:29:13.895Z,17.30
2018-07-02T22:34:11.611Z,17.20
2018-07-02T22:36:40.611Z,17.10
2018-07-02T22:39:11.465Z,17.00
2018-07-02T22:41:40.453Z,16.90
2018-07-02T22:44:09.929Z,16.80
2018-07-02T22:46:38.878Z,16.70
2018-07-02T22:49:07.856Z,16.60
2018-07-02T22:51:38.524Z,16.50
2018-07-02T22:56:36.042Z,16.40
2018-07-02T22:59:05.066Z,16.40
2018-07-02T23:01:34.083Z,16.40
2018-07-02T23:04:03.010Z,16.40
2018-07-02T23:06:31.984Z,16.30
2018-07-02T23:09:01.186Z,16.30
2018-07-02T23:11:30.222Z,16.30
2018-07-02T23:13:59.135Z,16.30
2018-07-02T23:18:56.780Z,16.20
2018-07-02T23:21:25.748Z,16.20
2018-07-02T23:23:54.722Z,16.20
2018-07-02T23:26:23.964Z,16.10
2018-07-02T23:28:52.945Z,16.10
2018-07-02T23:31:21.905Z,16.00
2018-07-02T23:33:50.863Z,16.00
2018-07-02T23:36:19.799Z,15.90
2018-07-02T23:38:48.850Z,15.90
2018-07-02T23:41:17.781Z,15.90
2018-07-02T23:43:46.813Z,15.80
2018-07-02T23:46:15.777Z,15.80
2018-07-02T23:48:44.756Z,15.80
2018-07-02T23:51:13.809Z,15.80
2018-07-02T23:53:42.869Z,15.80
2018-07-02T23:56:11.854Z,15.70
2018-07-02T23:58:41.922Z,15.70
